sensor_id;sensor_type;location;lat;lon;timestamp;P1;durP1;ratioP1;P2;durP2;ratioP2
1140;SDS011;559;48.628;8.924;2024-01-10T00:01:42;74.78;;;71.47;;
1140;SDS011;559;48.628;8.924;2024-01-10T00:04:09;76.85;;;73.50;;
1140;SDS011;559;48.628;8.924;2024-01-10T00:06:36;81.57;;;78.07;;
1140;SDS011;559;48.628;8.924;2024-01-10T00:09:02;80.85;;;77.05;;
1140;SDS011;559;48.628;8.924;2024-01-10T00:11:29;81.88;;;78.20;;
1140;SDS011;559;48.628;8.924;2024-01-10T00:13:55;74.47;;;71.05;;
1140;SDS011;559;48.628;8.924;2024-01-10T00:16:24;75.20;;;71.60;;
1140;SDS011;559;48.628;8.924;2024-01-10T00:18:51;69.82;;;66.43;;
1140;SDS011;559;48.628;8.924;2024-01-10T00:21:19;68.72;;;65.35;;
1140;SDS011;559;48.628;8.924;2024-01-10T00:23:46;68.60;;;65.75;;
1140;SDS011;559;48.628;8.924;2024-01-10T00:26:12;60.35;;;57.65;;
1140;SDS011;559;48.628;8.924;2024-01-10T00:28:39;68.65;;;65.45;;
1140;SDS011;559;48.628;8.924;2024-01-10T00:31:05;70.93;;;67.50;;
1140;SDS011;559;48.628;8.924;2024-01-10T00:33:32;74.18;;;70.50;;
1140;SDS011;559;48.628;8.924;2024-01-10T00:35:58;74.15;;;70.80;;
1140;SDS011;559;48.628;8.924;2024-01-10T00:38:26;74.10;;;70.80;;
1140;SDS011;559;48.628;8.924;2024-01-10T00:40:53;82.22;;;78.43;;
1140;SDS011;559;48.628;8.924;2024-01-10T00:43:19;82.30;;;78.63;;
1140;SDS011;559;48.628;8.924;2024-01-10T00:45:46;80.22;;;76.63;;
1140;SDS011;559;48.628;8.924;2024-01-10T00:48:12;78.03;;;74.38;;
1140;SDS011;559;48.628;8.924;2024-01-10T00:50:39;75.35;;;71.85;;
1140;SDS011;559;48.628;8.924;2024-01-10T00:53:05;74.47;;;70.72;;
1140;SDS011;559;48.628;8.924;2024-01-10T00:55:33;73.72;;;70.45;;
1140;SDS011;559;48.628;8.924;2024-01-10T00:57:59;77.75;;;74.15;;
1140;SDS011;559;48.628;8.924;2024-01-10T01:00:26;72.68;;;69.68;;
1140;SDS011;559;48.628;8.924;2024-01-10T01:02:52;70.05;;;66.70;;
1140;SDS011;559;48.628;8.924;2024-01-10T01:05:19;75.18;;;71.95;;
1140;SDS011;559;48.628;8.924;2024-01-10T01:07:45;77.47;;;73.45;;
1140;SDS011;559;48.628;8.924;2024-01-10T01:10:12;76.00;;;72.00;;
1140;SDS011;559;48.628;8.924;2024-01-10T01:12:40;78.60;;;74.53;;
1140;SDS011;559;48.628;8.924;2024-01-10T01:15:06;78.22;;;74.22;;
1140;SDS011;559;48.628;8.924;2024-01-10T01:17:33;82.35;;;78.18;;
1140;SDS011;559;48.628;8.924;2024-01-10T01:20:00;78.72;;;74.65;;
1140;SDS011;559;48.628;8.924;2024-01-10T01:22:29;79.13;;;75.22;;
1140;SDS011;559;48.628;8.924;2024-01-10T01:24:56;84.60;;;80.30;;
1140;SDS011;559;48.628;8.924;2024-01-10T01:27:22;82.78;;;78.57;;
1140;SDS011;559;48.628;8.924;2024-01-10T01:29:50;86.05;;;81.82;;
1140;SDS011;559;48.628;8.924;2024-01-10T01:32:17;85.97;;;81.78;;
1140;SDS011;559;48.628;8.924;2024-01-10T01:34:43;86.63;;;82.55;;
1140;SDS011;559;48.628;8.924;2024-01-10T01:37:10;84.07;;;79.78;;
1140;SDS011;559;48.628;8.924;2024-01-10T01:39:36;90.65;;;86.35;;
1140;SDS011;559;48.628;8.924;2024-01-10T01:42:03;84.75;;;80.45;;
1140;SDS011;559;48.628;8.924;2024-01-10T01:44:30;87.68;;;82.68;;
1140;SDS011;559;48.628;8.924;2024-01-10T01:46:59;83.07;;;78.88;;
1140;SDS011;559;48.628;8.924;2024-01-10T01:49:25;83.10;;;79.15;;
1140;SDS011;559;48.628;8.924;2024-01-10T01:51:52;83.70;;;79.80;;
1140;SDS011;559;48.628;8.924;2024-01-10T01:54:18;88.97;;;84.18;;
1140;SDS011;559;48.628;8.924;2024-01-10T01:56:45;87.53;;;83.53;;
1140;SDS011;559;48.628;8.924;2024-01-10T01:59:12;89.65;;;85.63;;
1140;SDS011;559;48.628;8.924;2024-01-10T02:01:39;82.55;;;78.55;;
1140;SDS011;559;48.628;8.924;2024-01-10T02:04:07;87.50;;;83.57;;
1140;SDS011;559;48.628;8.924;2024-01-10T02:06:34;77.68;;;73.90;;
1140;SDS011;559;48.628;8.924;2024-01-10T02:09:00;82.45;;;78.75;;
1140;SDS011;559;48.628;8.924;2024-01-10T02:11:28;87.00;;;83.03;;
1140;SDS011;559;48.628;8.924;2024-01-10T02:13:55;87.15;;;82.95;;
1140;SDS011;559;48.628;8.924;2024-01-10T02:16:21;82.70;;;79.00;;
1140;SDS011;559;48.628;8.924;2024-01-10T02:18:49;82.50;;;78.57;;
1140;SDS011;559;48.628;8.924;2024-01-10T02:21:17;87.35;;;83.38;;
1140;SDS011;559;48.628;8.924;2024-01-10T02:23:46;84.78;;;80.57;;
1140;SDS011;559;48.628;8.924;2024-01-10T02:26:14;86.10;;;81.60;;
1140;SDS011;559;48.628;8.924;2024-01-10T02:28:41;83.47;;;79.50;;
1140;SDS011;559;48.628;8.924;2024-01-10T02:31:07;86.90;;;82.40;;
1140;SDS011;559;48.628;8.924;2024-01-10T02:33:34;82.30;;;78.40;;
1140;SDS011;559;48.628;8.924;2024-01-10T02:36:00;84.05;;;80.03;;
1140;SDS011;559;48.628;8.924;2024-01-10T02:38:27;82.93;;;78.43;;
1140;SDS011;559;48.628;8.924;2024-01-10T02:40:53;79.10;;;75.22;;
1140;SDS011;559;48.628;8.924;2024-01-10T02:43:22;82.13;;;77.82;;
1140;SDS011;559;48.628;8.924;2024-01-10T02:45:49;83.82;;;79.72;;
1140;SDS011;559;48.628;8.924;2024-01-10T02:48:15;84.43;;;80.32;;
1140;SDS011;559;48.628;8.924;2024-01-10T02:50:42;84.97;;;80.78;;
1140;SDS011;559;48.628;8.924;2024-01-10T02:53:08;83.97;;;80.10;;
1140;SDS011;559;48.628;8.924;2024-01-10T02:55:35;86.10;;;80.80;;
1140;SDS011;559;48.628;8.924;2024-01-10T02:58:01;92.18;;;87.88;;
1140;SDS011;559;48.628;8.924;2024-01-10T03:00:29;83.20;;;78.90;;
1140;SDS011;559;48.628;8.924;2024-01-10T03:02:55;81.28;;;77.03;;
1140;SDS011;559;48.628;8.924;2024-01-10T03:05:22;72.32;;;68.78;;
1140;SDS011;559;48.628;8.924;2024-01-10T03:07:48;65.18;;;61.70;;
1140;SDS011;559;48.628;8.924;2024-01-10T03:10:15;58.20;;;55.50;;
1140;SDS011;559;48.628;8.924;2024-01-10T03:12:41;58.00;;;55.20;;
1140;SDS011;559;48.628;8.924;2024-01-10T03:15:08;50.80;;;48.13;;
1140;SDS011;559;48.628;8.924;2024-01-10T03:17:36;37.38;;;35.33;;
1140;SDS011;559;48.628;8.924;2024-01-10T03:20:03;37.15;;;34.58;;
1140;SDS011;559;48.628;8.924;2024-01-10T03:22:30;30.98;;;28.40;;
1140;SDS011;559;48.628;8.924;2024-01-10T03:24:57;29.42;;;27.13;;
1140;SDS011;559;48.628;8.924;2024-01-10T03:27:24;28.83;;;26.70;;
1140;SDS011;559;48.628;8.924;2024-01-10T03:29:50;27.65;;;25.70;;
1140;SDS011;559;48.628;8.924;2024-01-10T03:32:17;27.70;;;25.55;;
1140;SDS011;559;48.628;8.924;2024-01-10T03:34:44;26.55;;;23.85;;
1140;SDS011;559;48.628;8.924;2024-01-10T03:37:11;22.75;;;20.55;;
1140;SDS011;559;48.628;8.924;2024-01-10T03:39:37;26.13;;;23.83;;
1140;SDS011;559;48.628;8.924;2024-01-10T03:42:04;25.25;;;23.02;;
1140;SDS011;559;48.628;8.924;2024-01-10T03:44:31;24.65;;;22.60;;
1140;SDS011;559;48.628;8.924;2024-01-10T03:46:57;24.67;;;22.63;;
1140;SDS011;559;48.628;8.924;2024-01-10T03:49:23;24.42;;;22.38;;
1140;SDS011;559;48.628;8.924;2024-01-10T03:51:51;24.08;;;22.17;;
1140;SDS011;559;48.628;8.924;2024-01-10T03:54:18;24.95;;;22.65;;
1140;SDS011;559;48.628;8.924;2024-01-10T03:56:44;26.17;;;23.67;;
1140;SDS011;559;48.628;8.924;2024-01-10T03:59:11;30.00;;;27.10;;
1140;SDS011;559;48.628;8.924;2024-01-10T04:01:37;28.73;;;26.80;;
1140;SDS011;559;48.628;8.924;2024-01-10T04:04:04;29.98;;;27.85;;
1140;SDS011;559;48.628;8.924;2024-01-10T04:06:30;30.25;;;28.23;;
1140;SDS011;559;48.628;8.924;2024-01-10T04:08:58;26.92;;;24.85;;
1140;SDS011;559;48.628;8.924;2024-01-10T04:11:25;26.77;;;24.83;;
1140;SDS011;559;48.628;8.924;2024-01-10T04:13:51;26.02;;;24.08;;
1140;SDS011;559;48.628;8.924;2024-01-10T04:16:18;25.38;;;23.58;;
1140;SDS011;559;48.628;8.924;2024-01-10T04:18:44;23.67;;;21.63;;
1140;SDS011;559;48.628;8.924;2024-01-10T04:21:11;23.02;;;20.92;;
1140;SDS011;559;48.628;8.924;2024-01-10T04:23:37;22.55;;;20.33;;
1140;SDS011;559;48.628;8.924;2024-01-10T04:26:05;27.75;;;25.35;;
1140;SDS011;559;48.628;8.924;2024-01-10T04:28:32;27.80;;;25.50;;
1140;SDS011;559;48.628;8.924;2024-01-10T04:30:58;30.13;;;28.00;;
1140;SDS011;559;48.628;8.924;2024-01-10T04:33:25;26.10;;;23.90;;
1140;SDS011;559;48.628;8.924;2024-01-10T04:35:51;22.88;;;21.08;;
1140;SDS011;559;48.628;8.924;2024-01-10T04:38:18;21.55;;;19.95;;
1140;SDS011;559;48.628;8.924;2024-01-10T04:40:44;21.58;;;19.92;;
1140;SDS011;559;48.628;8.924;2024-01-10T04:43:12;24.45;;;22.20;;
1140;SDS011;559;48.628;8.924;2024-01-10T04:45:38;25.48;;;22.95;;
1140;SDS011;559;48.628;8.924;2024-01-10T04:48:05;21.15;;;19.10;;
1140;SDS011;559;48.628;8.924;2024-01-10T04:50:32;20.67;;;18.90;;
1140;SDS011;559;48.628;8.924;2024-01-10T04:52:58;20.45;;;18.38;;
1140;SDS011;559;48.628;8.924;2024-01-10T04:55:25;24.23;;;21.83;;
1140;SDS011;559;48.628;8.924;2024-01-10T04:57:52;24.10;;;21.42;;
1140;SDS011;559;48.628;8.924;2024-01-10T05:00:20;23.33;;;21.40;;
1140;SDS011;559;48.628;8.924;2024-01-10T05:02:47;21.48;;;19.67;;
1140;SDS011;559;48.628;8.924;2024-01-10T05:05:13;23.00;;;21.17;;
1140;SDS011;559;48.628;8.924;2024-01-10T05:07:40;24.42;;;22.20;;
1140;SDS011;559;48.628;8.924;2024-01-10T05:10:07;24.92;;;22.95;;
1140;SDS011;559;48.628;8.924;2024-01-10T05:12:33;30.10;;;27.92;;
1140;SDS011;559;48.628;8.924;2024-01-10T05:15:00;30.80;;;28.58;;
1140;SDS011;559;48.628;8.924;2024-01-10T05:17:28;27.73;;;25.75;;
1140;SDS011;559;48.628;8.924;2024-01-10T05:19:54;32.85;;;30.75;;
1140;SDS011;559;48.628;8.924;2024-01-10T05:22:21;31.42;;;28.95;;
1140;SDS011;559;48.628;8.924;2024-01-10T05:24:47;29.00;;;26.75;;
1140;SDS011;559;48.628;8.924;2024-01-10T05:27:14;33.40;;;31.00;;
1140;SDS011;559;48.628;8.924;2024-01-10T05:29:41;35.83;;;32.88;;
1140;SDS011;559;48.628;8.924;2024-01-10T05:32:07;28.02;;;25.77;;
1140;SDS011;559;48.628;8.924;2024-01-10T05:34:35;29.63;;;27.42;;
1140;SDS011;559;48.628;8.924;2024-01-10T05:37:02;41.42;;;38.53;;
1140;SDS011;559;48.628;8.924;2024-01-10T05:39:29;40.80;;;38.30;;
1140;SDS011;559;48.628;8.924;2024-01-10T05:41:55;41.03;;;38.60;;
1140;SDS011;559;48.628;8.924;2024-01-10T05:44:22;43.53;;;40.65;;
1140;SDS011;559;48.628;8.924;2024-01-10T05:46:48;38.65;;;36.05;;
1140;SDS011;559;48.628;8.924;2024-01-10T05:49:15;38.15;;;35.95;;
1140;SDS011;559;48.628;8.924;2024-01-10T05:51:42;40.00;;;37.72;;
1140;SDS011;559;48.628;8.924;2024-01-10T05:54:09;40.40;;;37.70;;
1140;SDS011;559;48.628;8.924;2024-01-10T05:56:35;41.08;;;38.60;;
1140;SDS011;559;48.628;8.924;2024-01-10T05:59:03;45.25;;;42.35;;
1140;SDS011;559;48.628;8.924;2024-01-10T06:01:30;49.33;;;46.53;;
1140;SDS011;559;48.628;8.924;2024-01-10T06:03:56;50.30;;;47.50;;
1140;SDS011;559;48.628;8.924;2024-01-10T06:06:23;51.67;;;48.55;;
1140;SDS011;559;48.628;8.924;2024-01-10T06:08:51;50.55;;;47.78;;
1140;SDS011;559;48.628;8.924;2024-01-10T06:11:17;52.55;;;49.60;;
1140;SDS011;559;48.628;8.924;2024-01-10T06:13:44;50.38;;;47.83;;
1140;SDS011;559;48.628;8.924;2024-01-10T06:16:10;49.55;;;46.95;;
1140;SDS011;559;48.628;8.924;2024-01-10T06:18:38;53.45;;;50.35;;
1140;SDS011;559;48.628;8.924;2024-01-10T06:21:05;51.58;;;48.83;;
1140;SDS011;559;48.628;8.924;2024-01-10T06:23:31;57.17;;;54.03;;
1140;SDS011;559;48.628;8.924;2024-01-10T06:25:59;57.47;;;54.35;;
1140;SDS011;559;48.628;8.924;2024-01-10T06:28:25;55.05;;;52.45;;
1140;SDS011;559;48.628;8.924;2024-01-10T06:30:52;59.97;;;56.67;;
1140;SDS011;559;48.628;8.924;2024-01-10T06:33:18;58.83;;;55.72;;
1140;SDS011;559;48.628;8.924;2024-01-10T06:35:45;62.13;;;59.00;;
1140;SDS011;559;48.628;8.924;2024-01-10T06:38:12;63.13;;;59.83;;
1140;SDS011;559;48.628;8.924;2024-01-10T06:40:38;61.08;;;56.83;;
1140;SDS011;559;48.628;8.924;2024-01-10T06:43:07;63.42;;;59.22;;
1140;SDS011;559;48.628;8.924;2024-01-10T06:45:34;65.40;;;61.67;;
1140;SDS011;559;48.628;8.924;2024-01-10T06:48:01;67.25;;;62.80;;
1140;SDS011;559;48.628;8.924;2024-01-10T06:50:28;67.00;;;63.30;;
1140;SDS011;559;48.628;8.924;2024-01-10T06:52:55;70.75;;;66.88;;
1140;SDS011;559;48.628;8.924;2024-01-10T06:55:22;68.82;;;65.13;;
1140;SDS011;559;48.628;8.924;2024-01-10T06:57:49;72.32;;;68.35;;
1140;SDS011;559;48.628;8.924;2024-01-10T07:00:19;74.97;;;70.63;;
1140;SDS011;559;48.628;8.924;2024-01-10T07:02:46;74.07;;;70.28;;
1140;SDS011;559;48.628;8.924;2024-01-10T07:05:14;75.43;;;71.30;;
1140;SDS011;559;48.628;8.924;2024-01-10T07:07:40;76.32;;;72.20;;
1140;SDS011;559;48.628;8.924;2024-01-10T07:10:07;69.15;;;65.28;;
1140;SDS011;559;48.628;8.924;2024-01-10T07:12:34;73.75;;;70.00;;
1140;SDS011;559;48.628;8.924;2024-01-10T07:15:01;72.95;;;69.15;;
1140;SDS011;559;48.628;8.924;2024-01-10T07:17:29;75.70;;;71.53;;
1140;SDS011;559;48.628;8.924;2024-01-10T07:19:56;74.22;;;70.28;;
1140;SDS011;559;48.628;8.924;2024-01-10T07:22:22;73.93;;;70.03;;
1140;SDS011;559;48.628;8.924;2024-01-10T07:24:49;81.55;;;77.38;;
1140;SDS011;559;48.628;8.924;2024-01-10T07:27:16;81.07;;;76.78;;
1140;SDS011;559;48.628;8.924;2024-01-10T07:29:43;80.28;;;75.95;;
1140;SDS011;559;48.628;8.924;2024-01-10T07:32:11;80.53;;;76.20;;
1140;SDS011;559;48.628;8.924;2024-01-10T07:34:39;73.72;;;69.95;;
1140;SDS011;559;48.628;8.924;2024-01-10T07:37:06;76.50;;;72.35;;
1140;SDS011;559;48.628;8.924;2024-01-10T07:39:34;70.88;;;67.75;;
1140;SDS011;559;48.628;8.924;2024-01-10T07:42:00;70.90;;;67.10;;
1140;SDS011;559;48.628;8.924;2024-01-10T07:44:27;77.65;;;74.18;;
1140;SDS011;559;48.628;8.924;2024-01-10T07:46:54;74.63;;;70.53;;
1140;SDS011;559;48.628;8.924;2024-01-10T07:49:20;82.75;;;78.63;;
1140;SDS011;559;48.628;8.924;2024-01-10T07:51:50;85.38;;;80.90;;
1140;SDS011;559;48.628;8.924;2024-01-10T07:54:16;86.80;;;82.47;;
1140;SDS011;559;48.628;8.924;2024-01-10T07:56:43;83.35;;;79.20;;
1140;SDS011;559;48.628;8.924;2024-01-10T07:59:09;84.22;;;80.07;;
1140;SDS011;559;48.628;8.924;2024-01-10T08:01:39;84.13;;;78.97;;
1140;SDS011;559;48.628;8.924;2024-01-10T08:04:06;92.72;;;86.50;;
1140;SDS011;559;48.628;8.924;2024-01-10T08:06:32;89.47;;;84.60;;
1140;SDS011;559;48.628;8.924;2024-01-10T08:09:01;87.80;;;83.72;;
1140;SDS011;559;48.628;8.924;2024-01-10T08:11:29;84.65;;;80.10;;
1140;SDS011;559;48.628;8.924;2024-01-10T08:13:56;90.60;;;85.90;;
1140;SDS011;559;48.628;8.924;2024-01-10T08:16:22;85.80;;;81.30;;
1140;SDS011;559;48.628;8.924;2024-01-10T08:18:49;84.63;;;79.82;;
1140;SDS011;559;48.628;8.924;2024-01-10T08:21:15;86.43;;;80.57;;
1140;SDS011;559;48.628;8.924;2024-01-10T08:23:42;86.40;;;81.28;;
1140;SDS011;559;48.628;8.924;2024-01-10T08:26:09;85.22;;;80.28;;
1140;SDS011;559;48.628;8.924;2024-01-10T08:28:36;80.13;;;75.15;;
1140;SDS011;559;48.628;8.924;2024-01-10T08:31:02;73.00;;;69.10;;
1140;SDS011;559;48.628;8.924;2024-01-10T08:33:29;77.30;;;73.10;;
1140;SDS011;559;48.628;8.924;2024-01-10T08:35:56;67.35;;;63.38;;
1140;SDS011;559;48.628;8.924;2024-01-10T08:38:23;71.18;;;67.68;;
1140;SDS011;559;48.628;8.924;2024-01-10T08:40:50;62.63;;;59.17;;
1140;SDS011;559;48.628;8.924;2024-01-10T08:43:18;66.72;;;62.97;;
1140;SDS011;559;48.628;8.924;2024-01-10T08:45:44;59.00;;;56.00;;
1140;SDS011;559;48.628;8.924;2024-01-10T08:48:11;63.65;;;60.17;;
1140;SDS011;559;48.628;8.924;2024-01-10T08:50:38;58.63;;;55.17;;
1140;SDS011;559;48.628;8.924;2024-01-10T08:53:05;59.22;;;55.72;;
1140;SDS011;559;48.628;8.924;2024-01-10T08:55:31;56.35;;;52.85;;
1140;SDS011;559;48.628;8.924;2024-01-10T08:57:59;55.47;;;51.88;;
1140;SDS011;559;48.628;8.924;2024-01-10T09:00:27;53.47;;;49.88;;
1140;SDS011;559;48.628;8.924;2024-01-10T09:02:54;44.53;;;42.05;;
1140;SDS011;559;48.628;8.924;2024-01-10T09:05:20;43.67;;;41.13;;
1140;SDS011;559;48.628;8.924;2024-01-10T09:07:47;44.85;;;42.13;;
1140;SDS011;559;48.628;8.924;2024-01-10T09:10:14;46.60;;;43.67;;
1140;SDS011;559;48.628;8.924;2024-01-10T09:12:41;46.25;;;42.90;;
1140;SDS011;559;48.628;8.924;2024-01-10T09:15:11;41.88;;;38.72;;
1140;SDS011;559;48.628;8.924;2024-01-10T09:17:40;35.80;;;33.13;;
1140;SDS011;559;48.628;8.924;2024-01-10T09:20:07;37.10;;;34.20;;
1140;SDS011;559;48.628;8.924;2024-01-10T09:22:35;34.85;;;31.83;;
1140;SDS011;559;48.628;8.924;2024-01-10T09:25:03;32.70;;;29.80;;
1140;SDS011;559;48.628;8.924;2024-01-10T09:27:30;40.80;;;28.92;;
1140;SDS011;559;48.628;8.924;2024-01-10T09:29:58;28.25;;;25.55;;
1140;SDS011;559;48.628;8.924;2024-01-10T09:32:26;30.80;;;28.05;;
1140;SDS011;559;48.628;8.924;2024-01-10T09:34:53;28.55;;;25.95;;
1140;SDS011;559;48.628;8.924;2024-01-10T09:37:20;27.90;;;25.08;;
1140;SDS011;559;48.628;8.924;2024-01-10T09:39:47;30.42;;;26.38;;
1140;SDS011;559;48.628;8.924;2024-01-10T09:42:14;28.65;;;25.85;;
1140;SDS011;559;48.628;8.924;2024-01-10T09:44:41;29.35;;;26.50;;
1140;SDS011;559;48.628;8.924;2024-01-10T09:47:07;24.55;;;22.00;;
1140;SDS011;559;48.628;8.924;2024-01-10T09:49:35;27.35;;;24.17;;
1140;SDS011;559;48.628;8.924;2024-01-10T09:52:03;23.85;;;20.75;;
1140;SDS011;559;48.628;8.924;2024-01-10T09:54:30;30.75;;;20.92;;
1140;SDS011;559;48.628;8.924;2024-01-10T09:56:57;27.75;;;21.83;;
1140;SDS011;559;48.628;8.924;2024-01-10T09:59:24;26.42;;;19.30;;
1140;SDS011;559;48.628;8.924;2024-01-10T10:01:51;24.58;;;17.88;;
1140;SDS011;559;48.628;8.924;2024-01-10T10:04:18;24.08;;;18.80;;
1140;SDS011;559;48.628;8.924;2024-01-10T10:06:46;26.55;;;19.98;;
1140;SDS011;559;48.628;8.924;2024-01-10T10:09:13;30.75;;;19.52;;
1140;SDS011;559;48.628;8.924;2024-01-10T10:11:41;22.40;;;20.00;;
1140;SDS011;559;48.628;8.924;2024-01-10T10:14:13;23.60;;;19.35;;
1140;SDS011;559;48.628;8.924;2024-01-10T10:16:40;23.58;;;17.30;;
1140;SDS011;559;48.628;8.924;2024-01-10T10:19:07;25.95;;;18.60;;
1140;SDS011;559;48.628;8.924;2024-01-10T10:21:34;22.90;;;18.63;;
1140;SDS011;559;48.628;8.924;2024-01-10T10:24:01;25.98;;;18.50;;
1140;SDS011;559;48.628;8.924;2024-01-10T10:26:31;25.60;;;20.48;;
1140;SDS011;559;48.628;8.924;2024-01-10T10:28:59;24.10;;;18.75;;
1140;SDS011;559;48.628;8.924;2024-01-10T10:31:25;27.48;;;17.70;;
1140;SDS011;559;48.628;8.924;2024-01-10T10:34:01;29.30;;;20.83;;
1140;SDS011;559;48.628;8.924;2024-01-10T10:36:29;20.25;;;18.05;;
1140;SDS011;559;48.628;8.924;2024-01-10T10:38:58;28.27;;;19.65;;
1140;SDS011;559;48.628;8.924;2024-01-10T10:41:26;24.98;;;20.83;;
1140;SDS011;559;48.628;8.924;2024-01-10T10:43:55;22.63;;;18.30;;
1140;SDS011;559;48.628;8.924;2024-01-10T10:46:21;29.23;;;19.45;;
1140;SDS011;559;48.628;8.924;2024-01-10T10:48:49;25.63;;;18.67;;
1140;SDS011;559;48.628;8.924;2024-01-10T10:51:17;19.92;;;17.42;;
1140;SDS011;559;48.628;8.924;2024-01-10T10:53:45;30.45;;;19.38;;
1140;SDS011;559;48.628;8.924;2024-01-10T10:56:12;27.40;;;17.10;;
1140;SDS011;559;48.628;8.924;2024-01-10T10:58:39;27.33;;;17.05;;
1140;SDS011;559;48.628;8.924;2024-01-10T11:01:09;19.73;;;16.23;;
1140;SDS011;559;48.628;8.924;2024-01-10T11:03:37;29.95;;;17.52;;
1140;SDS011;559;48.628;8.924;2024-01-10T11:06:05;24.17;;;18.58;;
1140;SDS011;559;48.628;8.924;2024-01-10T11:08:34;23.95;;;19.17;;
1140;SDS011;559;48.628;8.924;2024-01-10T11:11:02;24.88;;;17.65;;
1140;SDS011;559;48.628;8.924;2024-01-10T11:13:37;30.70;;;20.15;;
1140;SDS011;559;48.628;8.924;2024-01-10T11:19:17;21.25;;;16.55;;
1140;SDS011;559;48.628;8.924;2024-01-10T11:21:55;24.33;;;17.05;;
1140;SDS011;559;48.628;8.924;2024-01-10T11:24:28;27.25;;;19.63;;
1140;SDS011;559;48.628;8.924;2024-01-10T11:27:06;23.02;;;19.10;;
1140;SDS011;559;48.628;8.924;2024-01-10T11:29:33;23.88;;;17.85;;
1140;SDS011;559;48.628;8.924;2024-01-10T11:32:01;27.05;;;18.48;;
1140;SDS011;559;48.628;8.924;2024-01-10T11:34:27;30.73;;;19.20;;
1140;SDS011;559;48.628;8.924;2024-01-10T11:37:09;27.00;;;19.30;;
1140;SDS011;559;48.628;8.924;2024-01-10T11:39:36;21.25;;;18.05;;
1140;SDS011;559;48.628;8.924;2024-01-10T11:42:03;31.83;;;22.48;;
1140;SDS011;559;48.628;8.924;2024-01-10T14:59:27;32.60;;;29.30;;
1140;SDS011;559;48.628;8.924;2024-01-10T15:01:54;35.70;;;32.55;;
1140;SDS011;559;48.628;8.924;2024-01-10T15:04:21;33.13;;;30.02;;
1140;SDS011;559;48.628;8.924;2024-01-10T15:06:47;33.55;;;30.70;;
1140;SDS011;559;48.628;8.924;2024-01-10T15:09:14;36.78;;;33.75;;
1140;SDS011;559;48.628;8.924;2024-01-10T15:11:40;33.00;;;29.70;;
1140;SDS011;559;48.628;8.924;2024-01-10T15:14:07;27.92;;;25.23;;
1140;SDS011;559;48.628;8.924;2024-01-10T15:16:35;26.08;;;23.40;;
1140;SDS011;559;48.628;8.924;2024-01-10T15:19:02;28.38;;;25.63;;
1140;SDS011;559;48.628;8.924;2024-01-10T15:21:29;32.17;;;29.20;;
1140;SDS011;559;48.628;8.924;2024-01-10T15:23:57;33.53;;;30.13;;
1140;SDS011;559;48.628;8.924;2024-01-10T15:26:23;30.60;;;27.85;;
1140;SDS011;559;48.628;8.924;2024-01-10T15:28:50;33.47;;;30.38;;
1140;SDS011;559;48.628;8.924;2024-01-10T15:31:19;33.60;;;30.20;;
1140;SDS011;559;48.628;8.924;2024-01-10T15:33:47;38.30;;;34.67;;
1140;SDS011;559;48.628;8.924;2024-01-10T15:36:14;33.33;;;30.23;;
1140;SDS011;559;48.628;8.924;2024-01-10T15:38:41;32.67;;;29.80;;
1140;SDS011;559;48.628;8.924;2024-01-10T15:41:07;37.35;;;34.25;;
1140;SDS011;559;48.628;8.924;2024-01-10T15:43:35;45.55;;;41.20;;
1140;SDS011;559;48.628;8.924;2024-01-10T15:46:02;41.88;;;37.95;;
1140;SDS011;559;48.628;8.924;2024-01-10T15:48:28;38.38;;;35.58;;
1140;SDS011;559;48.628;8.924;2024-01-10T15:50:56;43.70;;;40.20;;
1140;SDS011;559;48.628;8.924;2024-01-10T15:53:23;45.58;;;42.38;;
1140;SDS011;559;48.628;8.924;2024-01-10T15:55:50;48.75;;;45.55;;
1140;SDS011;559;48.628;8.924;2024-01-10T15:58:16;49.00;;;45.08;;
1140;SDS011;559;48.628;8.924;2024-01-10T16:00:43;96.97;;;87.78;;
1140;SDS011;559;48.628;8.924;2024-01-10T16:03:09;65.70;;;60.80;;
1140;SDS011;559;48.628;8.924;2024-01-10T16:05:36;81.13;;;74.47;;
1140;SDS011;559;48.628;8.924;2024-01-10T16:08:04;91.07;;;83.85;;
1140;SDS011;559;48.628;8.924;2024-01-10T16:10:31;71.03;;;66.20;;
1140;SDS011;559;48.628;8.924;2024-01-10T16:12:57;87.40;;;81.53;;
1140;SDS011;559;48.628;8.924;2024-01-10T16:15:24;76.13;;;71.82;;
1140;SDS011;559;48.628;8.924;2024-01-10T16:17:50;73.25;;;69.32;;
1140;SDS011;559;48.628;8.924;2024-01-10T16:20:17;73.97;;;70.18;;
1140;SDS011;559;48.628;8.924;2024-01-10T16:22:44;78.95;;;74.85;;
1140;SDS011;559;48.628;8.924;2024-01-10T16:25:11;81.40;;;77.05;;
1140;SDS011;559;48.628;8.924;2024-01-10T16:27:38;87.28;;;83.28;;
1140;SDS011;559;48.628;8.924;2024-01-10T16:30:05;90.90;;;85.85;;
1140;SDS011;559;48.628;8.924;2024-01-10T16:32:32;99.63;;;93.97;;
1140;SDS011;559;48.628;8.924;2024-01-10T16:34:58;107.47;;;101.67;;
1140;SDS011;559;48.628;8.924;2024-01-10T16:37:24;102.25;;;96.90;;
1140;SDS011;559;48.628;8.924;2024-01-10T16:39:51;102.28;;;97.07;;
1140;SDS011;559;48.628;8.924;2024-01-10T16:42:19;106.45;;;101.30;;
1140;SDS011;559;48.628;8.924;2024-01-10T16:44:45;108.47;;;102.53;;
1140;SDS011;559;48.628;8.924;2024-01-10T16:47:12;114.57;;;108.22;;
1140;SDS011;559;48.628;8.924;2024-01-10T16:49:39;101.25;;;96.65;;
1140;SDS011;559;48.628;8.924;2024-01-10T16:52:05;109.38;;;102.90;;
1140;SDS011;559;48.628;8.924;2024-01-10T16:54:32;116.80;;;111.00;;
1140;SDS011;559;48.628;8.924;2024-01-10T16:56:59;108.45;;;102.90;;
1140;SDS011;559;48.628;8.924;2024-01-10T16:59:26;109.43;;;103.40;;
1140;SDS011;559;48.628;8.924;2024-01-10T17:01:53;107.63;;;102.15;;
1140;SDS011;559;48.628;8.924;2024-01-10T17:04:21;101.35;;;95.75;;
1140;SDS011;559;48.628;8.924;2024-01-10T17:06:48;99.90;;;95.00;;
1140;SDS011;559;48.628;8.924;2024-01-10T17:09:14;97.65;;;92.82;;
1140;SDS011;559;48.628;8.924;2024-01-10T17:11:41;106.03;;;100.22;;
1140;SDS011;559;48.628;8.924;2024-01-10T17:14:08;104.50;;;99.28;;
1140;SDS011;559;48.628;8.924;2024-01-10T17:16:36;111.68;;;105.47;;
1140;SDS011;559;48.628;8.924;2024-01-10T17:19:03;109.32;;;104.13;;
1140;SDS011;559;48.628;8.924;2024-01-10T17:21:30;104.07;;;98.95;;
1140;SDS011;559;48.628;8.924;2024-01-10T17:23:57;107.35;;;101.70;;
1140;SDS011;559;48.628;8.924;2024-01-10T17:26:26;113.65;;;107.53;;
1140;SDS011;559;48.628;8.924;2024-01-10T17:28:52;111.88;;;106.18;;
1140;SDS011;559;48.628;8.924;2024-01-10T17:31:19;116.68;;;110.45;;
1140;SDS011;559;48.628;8.924;2024-01-10T17:33:47;115.18;;;108.60;;
1140;SDS011;559;48.628;8.924;2024-01-10T17:36:13;122.70;;;115.80;;
1140;SDS011;559;48.628;8.924;2024-01-10T17:38:40;115.63;;;110.15;;
1140;SDS011;559;48.628;8.924;2024-01-10T17:41:06;118.15;;;111.68;;
1140;SDS011;559;48.628;8.924;2024-01-10T17:43:33;113.15;;;106.80;;
1140;SDS011;559;48.628;8.924;2024-01-10T17:45:59;107.95;;;102.43;;
1140;SDS011;559;48.628;8.924;2024-01-10T17:48:26;110.45;;;104.55;;
1140;SDS011;559;48.628;8.924;2024-01-10T17:50:53;108.50;;;102.75;;
1140;SDS011;559;48.628;8.924;2024-01-10T17:53:20;112.80;;;107.40;;
1140;SDS011;559;48.628;8.924;2024-01-10T17:55:46;112.68;;;107.15;;
1140;SDS011;559;48.628;8.924;2024-01-10T17:58:13;112.07;;;106.47;;
1140;SDS011;559;48.628;8.924;2024-01-10T18:00:39;115.22;;;109.47;;
1140;SDS011;559;48.628;8.924;2024-01-10T18:03:07;112.13;;;106.60;;
1140;SDS011;559;48.628;8.924;2024-01-10T18:05:34;102.68;;;97.68;;
1140;SDS011;559;48.628;8.924;2024-01-10T18:08:05;108.80;;;102.97;;
1140;SDS011;559;48.628;8.924;2024-01-10T18:10:31;110.97;;;105.10;;
1140;SDS011;559;48.628;8.924;2024-01-10T18:12:58;114.65;;;108.55;;
1140;SDS011;559;48.628;8.924;2024-01-10T18:15:27;124.47;;;117.85;;